createdAt,value
2023-01-18T00:01:19.088Z,1.50
2023-01-18T00:03:46.374Z,1.50
2023-01-18T00:06:13.731Z,1.50
2023-01-18T00:08:42.571Z,1.50
2023-01-18T00:11:11.816Z,1.40
2023-01-18T00:13:39.825Z,1.40
2023-01-18T00:16:19.147Z,1.40
2023-01-18T00:18:57.613Z,1.40
2023-01-18T00:21:26.076Z,1.30
2023-01-18T00:23:57.036Z,1.30
2023-01-18T00:26:24.120Z,1.40
2023-01-18T00:28:51.299Z,1.40
2023-01-18T00:31:20.601Z,1.40
2023-01-18T00:33:49.969Z,1.30
2023-01-18T00:36:17.856Z,1.30
2023-01-18T00:38:51.492Z,1.30
2023-01-18T00:41:19.042Z,1.30
2023-01-18T00:43:46.469Z,1.30
2023-01-18T00:46:18.865Z,1.40
2023-01-18T00:48:45.918Z,1.50
2023-01-18T00:51:16.215Z,1.50
2023-01-18T00:53:45.749Z,1.60
2023-01-18T00:56:16.711Z,1.50
2023-01-18T00:58:44.163Z,1.50
2023-01-18T01:01:12.149Z,1.40
2023-01-18T01:03:58.428Z,1.30
2023-01-18T01:06:45.005Z,1.40
2023-01-18T01:09:17.590Z,1.30
2023-01-18T01:12:05.177Z,1.30
2023-01-18T01:14:53.641Z,1.30
2023-01-18T01:17:39.300Z,1.20
2023-01-18T01:20:25.552Z,1.20
2023-01-18T01:23:11.195Z,1.30
2023-01-18T01:25:56.963Z,1.40
2023-01-18T01:28:24.614Z,1.40
2023-01-18T01:30:51.897Z,1.30
2023-01-18T01:33:19.515Z,1.30
2023-01-18T01:35:46.474Z,1.20
2023-01-18T01:38:13.373Z,1.30
2023-01-18T01:40:40.490Z,1.20
2023-01-18T01:43:13.964Z,1.30
2023-01-18T01:45:41.179Z,1.30
2023-01-18T01:48:09.988Z,1.30
2023-01-18T01:50:39.852Z,1.30
2023-01-18T01:53:08.911Z,1.30
2023-01-18T01:55:39.423Z,1.30
2023-01-18T01:58:22.049Z,1.20
2023-01-18T02:00:49.126Z,1.20
2023-01-18T02:03:19.018Z,1.20
2023-01-18T02:05:51.513Z,1.20
2023-01-18T02:08:27.977Z,1.20
2023-01-18T02:10:55.024Z,1.20
2023-01-18T02:13:24.270Z,1.20
2023-01-18T02:16:18.674Z,1.20
2023-01-18T02:19:31.947Z,1.20
2023-01-18T02:22:10.072Z,1.20
2023-01-18T02:25:04.971Z,1.20
2023-01-18T02:27:51.044Z,1.20
2023-01-18T02:30:30.615Z,1.20
2023-01-18T02:33:14.354Z,1.10
2023-01-18T02:35:45.415Z,1.20
2023-01-18T02:38:26.446Z,1.20
2023-01-18T02:41:14.439Z,1.30
2023-01-18T02:44:02.000Z,1.20
2023-01-18T02:46:31.139Z,1.20
2023-01-18T02:49:00.704Z,1.30
2023-01-18T02:51:27.926Z,1.20
2023-01-18T02:53:54.891Z,1.20
2023-01-18T02:56:41.262Z,1.40
2023-01-18T02:59:17.370Z,1.30
2023-01-18T03:02:05.823Z,1.30
2023-01-18T03:06:00.243Z,1.20
2023-01-18T03:08:45.121Z,1.30
2023-01-18T03:11:14.847Z,1.30
2023-01-18T03:14:03.605Z,1.30
2023-01-18T03:16:55.559Z,1.30
2023-01-18T03:19:55.403Z,1.30
2023-01-18T03:22:45.269Z,1.30
2023-01-18T03:25:16.662Z,1.30
2023-01-18T03:28:04.913Z,1.40
2023-01-18T03:30:53.094Z,1.30
2023-01-18T03:33:41.397Z,1.30
2023-01-18T03:36:13.647Z,1.30
2023-01-18T03:38:43.190Z,1.30
2023-01-18T03:41:12.384Z,1.30
2023-01-18T03:43:41.852Z,1.30
2023-01-18T03:46:09.097Z,1.30
2023-01-18T03:48:37.144Z,1.30
2023-01-18T03:51:26.374Z,1.30
2023-01-18T03:54:12.782Z,1.30
2023-01-18T03:56:50.785Z,1.30
2023-01-18T03:59:18.059Z,1.30
2023-01-18T04:01:48.459Z,1.30
2023-01-18T04:04:15.867Z,1.30
2023-01-18T04:06:43.093Z,1.30
2023-01-18T04:09:11.955Z,1.30
2023-01-18T04:11:39.116Z,1.40
2023-01-18T04:14:06.364Z,1.50
2023-01-18T04:16:33.762Z,1.40
2023-01-18T04:19:00.942Z,1.50
2023-01-18T04:21:28.237Z,1.50
2023-01-18T04:23:55.589Z,1.50
2023-01-18T04:26:22.834Z,1.50
2023-01-18T04:28:49.777Z,1.50
2023-01-18T04:31:17.027Z,1.40
2023-01-18T04:33:44.342Z,1.40
2023-01-18T04:36:11.426Z,1.40
2023-01-18T04:38:38.649Z,1.40
2023-01-18T04:41:06.853Z,1.50
2023-01-18T04:43:34.283Z,1.50
2023-01-18T04:46:01.632Z,1.50
2023-01-18T04:48:28.657Z,1.50
2023-01-18T04:50:55.707Z,1.60
2023-01-18T04:53:22.809Z,1.50
2023-01-18T04:55:49.733Z,1.50
2023-01-18T04:58:16.826Z,1.50
2023-01-18T05:00:44.094Z,1.40
2023-01-18T05:03:12.863Z,1.40
2023-01-18T05:05:40.358Z,1.40
2023-01-18T05:08:07.367Z,1.40
2023-01-18T05:10:34.496Z,1.40
2023-01-18T05:13:02.073Z,1.40
2023-01-18T05:15:29.602Z,1.40
2023-01-18T05:17:56.671Z,1.30
2023-01-18T05:20:23.700Z,1.40
2023-01-18T05:22:50.722Z,1.40
2023-01-18T05:25:20.595Z,1.40
2023-01-18T05:27:47.589Z,1.30
2023-01-18T05:30:14.894Z,1.30
2023-01-18T05:32:41.841Z,1.30
2023-01-18T05:35:09.591Z,1.30
2023-01-18T05:37:36.506Z,1.20
2023-01-18T05:40:04.252Z,1.20
2023-01-18T05:42:31.344Z,1.20
2023-01-18T05:44:58.308Z,1.30
2023-01-18T05:47:25.541Z,1.30
2023-01-18T05:49:52.533Z,1.20
2023-01-18T05:52:19.567Z,1.30
2023-01-18T05:54:46.772Z,1.30
2023-01-18T05:57:13.918Z,1.30
2023-01-18T05:59:40.909Z,1.40
2023-01-18T06:02:07.932Z,1.30
2023-01-18T06:04:36.357Z,1.40
2023-01-18T06:07:03.555Z,1.40
2023-01-18T06:09:30.518Z,1.50
2023-01-18T06:11:57.585Z,1.50
2023-01-18T06:14:24.667Z,1.40
2023-01-18T06:16:51.825Z,1.40
2023-01-18T06:19:19.417Z,1.40
2023-01-18T06:21:47.652Z,1.30
2023-01-18T06:24:14.637Z,1.40
2023-01-18T06:26:41.621Z,1.50
2023-01-18T06:29:08.661Z,1.40
2023-01-18T06:31:35.704Z,1.30
2023-01-18T06:34:09.203Z,1.40
2023-01-18T06:36:39.572Z,1.40
2023-01-18T06:39:07.019Z,1.30
2023-01-18T06:41:34.497Z,1.30
2023-01-18T06:44:01.827Z,1.40
2023-01-18T06:46:29.034Z,1.30
2023-01-18T06:48:56.190Z,1.30
2023-01-18T06:51:23.667Z,1.30
2023-01-18T06:53:50.997Z,1.40
2023-01-18T06:56:18.153Z,1.30
2023-01-18T06:58:46.199Z,1.30
2023-01-18T07:01:13.454Z,1.20
2023-01-18T07:03:40.782Z,1.20
2023-01-18T07:06:08.029Z,1.20
2023-01-18T07:08:35.716Z,1.20
2023-01-18T07:11:08.251Z,1.20
2023-01-18T07:13:35.502Z,1.20
2023-01-18T07:16:02.628Z,1.20
2023-01-18T07:18:30.923Z,1.20
2023-01-18T07:21:00.097Z,1.20
2023-01-18T07:23:28.161Z,1.20
2023-01-18T07:26:00.216Z,1.20
2023-01-18T07:28:28.248Z,1.30
2023-01-18T07:30:55.317Z,1.30
2023-01-18T07:33:22.263Z,1.20
2023-01-18T07:35:53.068Z,1.30
2023-01-18T07:38:21.091Z,1.30
2023-01-18T07:40:48.732Z,1.30
2023-01-18T07:43:17.357Z,1.30
2023-01-18T07:45:46.183Z,1.40
2023-01-18T07:48:13.503Z,1.40
2023-01-18T07:50:40.478Z,1.30
2023-01-18T07:53:09.338Z,1.40
2023-01-18T07:55:38.875Z,1.40
2023-01-18T07:58:05.916Z,1.50
2023-01-18T08:00:33.081Z,1.50
2023-01-18T08:03:00.948Z,1.50
2023-01-18T08:05:29.759Z,1.50
2023-01-18T08:07:56.704Z,1.50
2023-01-18T08:10:27.552Z,1.60
2023-01-18T08:12:54.542Z,1.60
2023-01-18T08:15:21.841Z,1.70
2023-01-18T08:17:51.158Z,1.70
2023-01-18T08:20:18.615Z,1.60
2023-01-18T08:22:45.830Z,1.70
2023-01-18T08:25:12.954Z,1.80
2023-01-18T08:27:40.311Z,1.80
2023-01-18T08:30:08.307Z,1.80
2023-01-18T08:32:35.370Z,1.80
2023-01-18T08:35:02.562Z,1.90
2023-01-18T08:37:29.700Z,1.90
2023-01-18T08:39:57.004Z,1.90
2023-01-18T08:42:24.125Z,2.00
2023-01-18T08:44:51.140Z,2.00
2023-01-18T08:47:18.200Z,2.10
2023-01-18T08:49:46.749Z,2.10
2023-01-18T08:52:15.265Z,2.00
2023-01-18T08:54:42.158Z,2.10
2023-01-18T08:57:09.382Z,2.00
2023-01-18T08:59:36.585Z,2.10
2023-01-18T09:02:03.770Z,2.10
2023-01-18T09:04:31.029Z,1.90
2023-01-18T09:06:58.268Z,1.80
2023-01-18T09:09:25.467Z,1.80
2023-01-18T09:11:52.701Z,1.80
2023-01-18T09:14:20.182Z,1.90
2023-01-18T09:16:47.324Z,1.90
2023-01-18T09:19:14.861Z,1.90
2023-01-18T09:21:42.039Z,2.00
2023-01-18T09:24:08.968Z,2.00
2023-01-18T09:26:35.914Z,2.00
2023-01-18T09:29:02.966Z,2.00
2023-01-18T09:31:30.734Z,2.00
2023-01-18T09:34:06.326Z,2.00
2023-01-18T09:36:44.933Z,2.00
2023-01-18T09:39:11.925Z,2.00
2023-01-18T09:41:44.635Z,1.90
2023-01-18T09:44:36.253Z,2.00
2023-01-18T09:47:25.844Z,2.10
2023-01-18T09:50:14.873Z,2.20
2023-01-18T09:52:56.261Z,2.30
2023-01-18T09:55:34.037Z,2.50
2023-01-18T09:58:30.466Z,2.50
2023-01-18T10:01:07.739Z,2.50
2023-01-18T10:03:50.353Z,2.50
2023-01-18T10:06:29.240Z,2.50
2023-01-18T10:09:07.017Z,2.50
2023-01-18T10:11:44.844Z,2.50
2023-01-18T10:14:22.312Z,2.60
2023-01-18T10:16:56.838Z,2.60
2023-01-18T10:19:31.425Z,2.60
2023-01-18T10:22:20.543Z,2.60
2023-01-18T10:24:55.513Z,2.60
2023-01-18T10:27:31.944Z,2.60
2023-01-18T10:30:25.853Z,2.60
2023-01-18T10:32:58.007Z,2.70
2023-01-18T10:35:30.197Z,2.70
2023-01-18T10:38:02.769Z,2.70
2023-01-18T10:40:29.908Z,2.80
2023-01-18T10:43:04.094Z,2.70
2023-01-18T10:45:34.539Z,2.70
2023-01-18T10:48:25.731Z,2.70
2023-01-18T10:50:55.845Z,2.60
2023-01-18T10:53:31.562Z,2.60
2023-01-18T10:56:10.743Z,2.60
2023-01-18T10:59:01.272Z,2.50
2023-01-18T11:01:36.679Z,2.40
2023-01-18T11:04:24.192Z,2.40
2023-01-18T11:06:58.013Z,2.40
2023-01-18T11:09:48.692Z,2.30
2023-01-18T11:12:41.510Z,2.30
2023-01-18T11:15:14.453Z,2.30
2023-01-18T11:17:58.494Z,2.30
2023-01-18T11:20:36.738Z,2.30
2023-01-18T11:23:14.238Z,2.20
2023-01-18T11:25:58.450Z,2.20
2023-01-18T11:28:28.340Z,2.20
2023-01-18T11:30:59.810Z,2.20
2023-01-18T11:33:29.465Z,2.20
2023-01-18T11:36:01.263Z,2.30
2023-01-18T11:38:35.233Z,2.30
2023-01-18T11:41:13.345Z,2.30
2023-01-18T11:44:03.207Z,2.20
2023-01-18T11:46:48.016Z,2.20
2023-01-18T11:49:27.967Z,2.20
2023-01-18T11:52:24.040Z,2.30
2023-01-18T11:55:00.364Z,2.40
2023-01-18T11:57:28.492Z,2.40
2023-01-18T11:59:55.742Z,2.50
2023-01-18T12:02:36.408Z,2.40
2023-01-18T12:05:25.747Z,2.40
2023-01-18T12:08:24.265Z,2.30
2023-01-18T12:11:04.644Z,2.40
2023-01-18T12:13:59.949Z,2.50
2023-01-18T12:16:42.045Z,2.50
2023-01-18T12:19:27.607Z,2.50
2023-01-18T12:22:32.577Z,2.40
2023-01-18T12:25:25.592Z,2.40
2023-01-18T12:28:04.064Z,2.40
2023-01-18T12:30:45.926Z,2.50
2023-01-18T12:33:43.099Z,2.40
2023-01-18T12:36:33.452Z,2.50
2023-01-18T12:39:11.070Z,2.50
2023-01-18T12:41:55.359Z,2.50
2023-01-18T12:44:49.388Z,2.60
2023-01-18T12:47:38.407Z,2.60
2023-01-18T12:50:28.257Z,2.60
2023-01-18T12:53:01.455Z,2.60
2023-01-18T12:55:32.600Z,2.60
2023-01-18T12:58:02.338Z,2.60
2023-01-18T13:00:39.756Z,2.70
2023-01-18T13:03:15.207Z,2.70
2023-01-18T13:05:52.580Z,2.70
2023-01-18T13:08:40.348Z,2.60
2023-01-18T13:11:14.442Z,2.70
2023-01-18T13:13:44.993Z,2.70
2023-01-18T13:16:33.118Z,2.60
2023-01-18T13:19:04.149Z,2.60
2023-01-18T13:21:53.393Z,2.60
2023-01-18T13:24:53.489Z,2.50
2023-01-18T13:27:21.368Z,2.50
2023-01-18T13:29:48.937Z,2.60
2023-01-18T13:32:44.976Z,2.50
2023-01-18T13:35:21.675Z,2.50
2023-01-18T13:37:55.721Z,2.50
2023-01-18T13:40:53.061Z,2.50
2023-01-18T13:43:32.754Z,2.60
2023-01-18T13:46:09.804Z,2.60
2023-01-18T13:48:46.337Z,2.60
2023-01-18T13:51:47.776Z,2.60
2023-01-18T13:54:23.632Z,2.60
2023-01-18T13:57:04.577Z,2.60
2023-01-18T13:59:38.709Z,2.70
2023-01-18T14:02:42.615Z,2.80
2023-01-18T14:05:28.236Z,2.90
2023-01-18T14:07:59.353Z,2.90
2023-01-18T14:10:36.129Z,2.90
2023-01-18T14:13:06.535Z,2.80
2023-01-18T14:15:40.372Z,2.80
2023-01-18T14:18:24.639Z,2.70
2023-01-18T14:21:18.114Z,2.70
2023-01-18T14:24:27.921Z,2.70
2023-01-18T14:26:58.203Z,2.60
2023-01-18T14:29:45.861Z,2.60
2023-01-18T14:32:23.246Z,2.50
2023-01-18T14:35:01.911Z,2.50
2023-01-18T14:37:34.624Z,2.40
2023-01-18T14:40:06.252Z,2.40
2023-01-18T14:42:35.463Z,2.40
2023-01-18T14:45:05.479Z,2.50
2023-01-18T14:47:34.207Z,2.50
2023-01-18T14:50:04.147Z,2.40
2023-01-18T14:52:34.246Z,2.30
2023-01-18T14:55:01.540Z,2.30
2023-01-18T14:57:28.708Z,2.40
2023-01-18T15:00:23.652Z,2.40
2023-01-18T15:02:50.972Z,2.40
2023-01-18T15:05:23.594Z,2.40
2023-01-18T15:07:55.212Z,2.30
2023-01-18T15:10:24.173Z,2.20
2023-01-18T15:12:54.922Z,2.20
2023-01-18T15:15:38.672Z,2.20
2023-01-18T15:18:10.708Z,2.20
2023-01-18T15:21:21.988Z,2.20
2023-01-18T15:23:52.555Z,2.10
2023-01-18T15:26:38.783Z,2.30
2023-01-18T15:29:19.901Z,2.20
2023-01-18T15:31:50.297Z,2.20
2023-01-18T15:34:28.969Z,2.10
2023-01-18T15:36:57.484Z,2.10
2023-01-18T15:39:24.665Z,2.10
2023-01-18T15:41:53.898Z,2.00
2023-01-18T15:44:45.899Z,2.00
2023-01-18T15:47:24.417Z,2.00
2023-01-18T15:49:57.765Z,2.00
2023-01-18T15:52:45.258Z,2.10
2023-01-18T15:55:26.217Z,2.00
2023-01-18T15:58:07.044Z,2.00
2023-01-18T16:00:41.949Z,2.00
2023-01-18T16:03:23.584Z,2.00
2023-01-18T16:06:08.870Z,2.00
2023-01-18T16:08:35.984Z,2.00
2023-01-18T16:11:03.302Z,1.90
2023-01-18T16:13:38.909Z,1.90
2023-01-18T16:16:20.452Z,1.80
2023-01-18T16:19:29.040Z,1.80
2023-01-18T16:21:59.708Z,1.80
2023-01-18T16:24:32.220Z,1.70
2023-01-18T16:27:10.267Z,1.70
2023-01-18T16:29:50.029Z,1.70
2023-01-18T16:32:30.475Z,1.70
2023-01-18T16:35:11.046Z,1.70
2023-01-18T16:37:41.464Z,1.70
2023-01-18T16:40:09.628Z,1.70
2023-01-18T16:42:57.315Z,1.60
2023-01-18T16:45:24.660Z,1.70
2023-01-18T16:47:51.826Z,1.60
2023-01-18T16:50:19.307Z,1.60
2023-01-18T16:52:46.320Z,1.60
2023-01-18T16:55:14.645Z,1.60
2023-01-18T16:57:42.539Z,1.60
2023-01-18T17:00:23.351Z,1.60
2023-01-18T17:02:51.013Z,1.60
2023-01-18T17:05:20.840Z,1.60
2023-01-18T17:07:48.650Z,1.60
2023-01-18T17:10:34.139Z,1.60
2023-01-18T17:13:01.476Z,1.60
2023-01-18T17:15:30.783Z,1.60
2023-01-18T17:17:58.148Z,1.60
2023-01-18T17:20:27.156Z,1.60
2023-01-18T17:22:55.637Z,1.60
2023-01-18T17:25:23.781Z,1.60
2023-01-18T17:27:51.188Z,1.60
2023-01-18T17:30:21.703Z,1.60
2023-01-18T17:32:49.864Z,1.50
2023-01-18T17:35:21.828Z,1.50
2023-01-18T17:37:54.572Z,1.50
2023-01-18T17:40:39.336Z,1.50
2023-01-18T17:43:22.149Z,1.50
2023-01-18T17:46:00.730Z,1.50
2023-01-18T17:48:28.844Z,1.50
2023-01-18T17:50:56.099Z,1.40
2023-01-18T17:53:23.191Z,1.40
2023-01-18T17:55:50.583Z,1.40
2023-01-18T17:58:17.798Z,1.40
2023-01-18T18:00:45.398Z,1.50
2023-01-18T18:03:13.177Z,1.50
2023-01-18T18:05:40.630Z,1.40
2023-01-18T18:08:09.039Z,1.50
2023-01-18T18:10:36.220Z,1.50
2023-01-18T18:13:03.997Z,1.50
2023-01-18T18:15:31.429Z,1.50
2023-01-18T18:17:58.696Z,1.50
2023-01-18T18:20:26.072Z,1.40
2023-01-18T18:22:53.416Z,1.50
2023-01-18T18:25:20.818Z,1.40
2023-01-18T18:27:48.061Z,1.40
2023-01-18T18:30:17.716Z,1.40
2023-01-18T18:32:45.056Z,1.40
2023-01-18T18:35:24.400Z,1.50
2023-01-18T18:37:54.276Z,1.40
2023-01-18T18:40:22.224Z,1.40
2023-01-18T18:43:01.319Z,1.40
2023-01-18T18:45:33.731Z,1.40
2023-01-18T18:48:01.397Z,1.30
2023-01-18T18:50:29.982Z,1.30
2023-01-18T18:52:57.984Z,1.20
2023-01-18T18:55:25.468Z,1.20
2023-01-18T18:57:53.197Z,1.30
2023-01-18T19:00:20.720Z,1.30
2023-01-18T19:02:48.027Z,1.30
2023-01-18T19:05:16.438Z,1.30
2023-01-18T19:07:43.760Z,1.20
2023-01-18T19:10:13.347Z,1.10
2023-01-18T19:12:40.348Z,1.20
2023-01-18T19:15:08.233Z,1.10
2023-01-18T19:17:35.435Z,1.00
2023-01-18T19:20:02.512Z,0.90
2023-01-18T19:22:29.604Z,1.00
2023-01-18T19:24:56.820Z,1.00
2023-01-18T19:27:24.628Z,0.90
2023-01-18T19:29:53.235Z,0.80
2023-01-18T19:32:20.728Z,0.90
2023-01-18T19:34:47.861Z,0.80
2023-01-18T19:37:14.944Z,0.70
2023-01-18T19:39:41.944Z,0.70
2023-01-18T19:42:09.058Z,0.70
2023-01-18T19:44:36.427Z,0.70
2023-01-18T19:47:04.195Z,0.70
2023-01-18T19:49:31.446Z,0.60
2023-01-18T19:51:58.505Z,0.60
2023-01-18T19:54:25.628Z,0.60
2023-01-18T19:56:52.864Z,0.50
2023-01-18T19:59:20.023Z,0.50
2023-01-18T20:01:47.084Z,0.40
2023-01-18T20:04:14.708Z,0.40
2023-01-18T20:06:44.954Z,0.40
2023-01-18T20:09:19.839Z,0.40
2023-01-18T20:11:49.570Z,0.50
2023-01-18T20:14:18.483Z,0.50
2023-01-18T20:16:46.306Z,0.40
2023-01-18T20:19:14.793Z,0.40
2023-01-18T20:21:42.227Z,0.30
2023-01-18T20:24:09.737Z,0.20
2023-01-18T20:26:39.572Z,0.20
2023-01-18T20:29:08.206Z,0.20
2023-01-18T20:31:36.729Z,0.10
2023-01-18T20:34:05.198Z,0.10
2023-01-18T20:36:35.020Z,0.10
2023-01-18T20:39:02.928Z,0.10
2023-01-18T20:41:30.003Z,0.00
2023-01-18T20:43:57.105Z,0.00
2023-01-18T20:46:24.439Z,-0.10
2023-01-18T20:48:51.502Z,-0.10
2023-01-18T20:51:18.563Z,-0.10
2023-01-18T20:53:45.754Z,0.00
2023-01-18T20:56:27.874Z,-0.10
2023-01-18T20:58:55.761Z,-0.10
2023-01-18T21:01:22.948Z,0.00
2023-01-18T21:03:55.423Z,-0.10
2023-01-18T21:06:22.926Z,-0.10
2023-01-18T21:08:54.686Z,-0.10
2023-01-18T21:11:23.165Z,-0.10
2023-01-18T21:13:50.520Z,-0.10
2023-01-18T21:16:17.925Z,-0.10
2023-01-18T21:18:44.957Z,-0.20
2023-01-18T21:21:12.949Z,-0.20
2023-01-18T21:23:40.367Z,-0.20
2023-01-18T21:26:10.386Z,-0.20
2023-01-18T21:28:37.428Z,-0.20
2023-01-18T21:31:04.879Z,-0.20
2023-01-18T21:33:32.580Z,-0.30
2023-01-18T21:36:13.865Z,-0.30
2023-01-18T21:38:41.480Z,-0.40
2023-01-18T21:41:27.912Z,-0.40
2023-01-18T21:44:14.505Z,-0.40
2023-01-18T21:46:51.993Z,-0.50
2023-01-18T21:52:44.534Z,-0.60
2023-01-18T21:55:12.071Z,-0.60
2023-01-18T21:57:39.024Z,-0.70
2023-01-18T22:00:07.172Z,-0.70
2023-01-18T22:02:35.016Z,-0.90
2023-01-18T22:05:05.643Z,-0.90
2023-01-18T22:07:34.755Z,-0.90
2023-01-18T22:10:07.068Z,-0.90
2023-01-18T22:12:35.855Z,-0.90
2023-01-18T22:15:04.810Z,-0.90
2023-01-18T22:17:31.946Z,-0.90
2023-01-18T22:19:59.880Z,-0.90
2023-01-18T22:22:27.263Z,-1.00
2023-01-18T22:24:54.718Z,-1.00
2023-01-18T22:27:21.633Z,-1.10
2023-01-18T22:29:49.100Z,-1.10
2023-01-18T22:32:16.532Z,-1.10
2023-01-18T22:34:43.725Z,-1.10
2023-01-18T22:37:10.750Z,-1.10
2023-01-18T22:39:37.982Z,-1.10
2023-01-18T22:42:05.338Z,-1.10
2023-01-18T22:44:32.922Z,-1.10
2023-01-18T22:47:00.190Z,-1.10
2023-01-18T22:49:27.223Z,-1.10
2023-01-18T22:51:54.208Z,-1.10
2023-01-18T22:54:22.901Z,-1.10
2023-01-18T22:56:50.253Z,-1.00
2023-01-18T22:59:17.546Z,-1.20
2023-01-18T23:01:44.803Z,-1.30
2023-01-18T23:04:12.383Z,-1.30
2023-01-18T23:06:46.605Z,-1.30
2023-01-18T23:09:17.734Z,-1.30
2023-01-18T23:11:47.491Z,-1.30
2023-01-18T23:14:33.151Z,-1.30
2023-01-18T23:17:18.740Z,-1.30
2023-01-18T23:19:46.936Z,-1.30
2023-01-18T23:22:14.063Z,-1.40
2023-01-18T23:24:41.081Z,-1.40
2023-01-18T23:27:10.134Z,-1.50
2023-01-18T23:29:38.500Z,-1.60
2023-01-18T23:32:05.933Z,-1.60
2023-01-18T23:34:32.930Z,-1.60
2023-01-18T23:37:00.349Z,-1.60
2023-01-18T23:39:46.161Z,-1.60
2023-01-18T23:42:32.251Z,-1.50
2023-01-18T23:45:18.436Z,-1.50
2023-01-18T23:48:04.462Z,-1.50
2023-01-18T23:50:50.086Z,-1.50
2023-01-18T23:53:36.151Z,-1.50
2023-01-18T23:56:03.135Z,-1.50
2023-01-18T23:58:30.349Z,-1.50
